createdAt,value
2019-01-10T00:00:24.848Z,71.70
2019-01-10T00:03:31.346Z,72.10
2019-01-10T00:06:36.162Z,71.80
2019-01-10T00:09:40.987Z,72.00
2019-01-10T00:12:45.855Z,72.20
2019-01-10T00:15:50.654Z,72.30
2019-01-10T00:18:55.567Z,71.90
2019-01-10T00:22:00.412Z,72.10
2019-01-10T00:25:10.373Z,72.10
2019-01-10T00:28:15.650Z,72.20
2019-01-10T00:31:20.450Z,72.20
2019-01-10T00:34:25.281Z,71.70
2019-01-10T00:37:30.107Z,72.00
2019-01-10T00:40:34.949Z,72.40
2019-01-10T00:43:39.857Z,71.90
2019-01-10T00:46:44.733Z,72.10
2019-01-10T00:49:49.566Z,71.70
2019-01-10T00:52:54.392Z,71.80
2019-01-10T00:55:59.189Z,71.50
2019-01-10T00:59:04.074Z,71.60
2019-01-10T01:02:08.926Z,71.40
2019-01-10T01:05:15.078Z,71.50
2019-01-10T01:08:19.958Z,71.50
2019-01-10T01:11:24.830Z,71.50
2019-01-10T01:14:29.678Z,71.40
2019-01-10T01:17:34.509Z,70.90
2019-01-10T01:20:39.357Z,71.10
2019-01-10T01:23:44.178Z,70.90
2019-01-10T01:26:49.026Z,71.20
2019-01-10T01:29:53.865Z,70.80
2019-01-10T01:32:58.839Z,71.10
2019-01-10T01:36:03.756Z,71.00
2019-01-10T01:39:08.649Z,71.20
2019-01-10T01:42:13.506Z,71.00
2019-01-10T01:45:19.552Z,70.70
2019-01-10T01:48:25.372Z,71.00
2019-01-10T01:51:30.266Z,70.50
2019-01-10T01:54:35.111Z,70.50
2019-01-10T01:57:39.937Z,70.40
2019-01-10T02:00:44.785Z,70.40
2019-01-10T02:03:50.100Z,70.70
2019-01-10T02:06:54.911Z,70.60
2019-01-10T02:09:59.753Z,70.50
2019-01-10T02:13:04.630Z,71.10
2019-01-10T02:16:09.519Z,71.10
2019-01-10T02:19:14.331Z,71.10
2019-01-10T02:22:19.152Z,71.40
2019-01-10T02:25:24.060Z,71.20
2019-01-10T02:28:29.021Z,71.40
2019-01-10T02:31:33.896Z,71.40
2019-01-10T02:34:38.804Z,71.30
2019-01-10T02:37:43.795Z,71.30
2019-01-10T02:40:48.763Z,71.40
2019-01-10T02:43:53.619Z,71.30
2019-01-10T02:46:58.439Z,71.60
2019-01-10T02:50:05.010Z,71.30
2019-01-10T02:53:09.849Z,70.90
2019-01-10T02:56:14.659Z,70.70
2019-01-10T02:59:19.510Z,69.90
2019-01-10T03:02:24.335Z,69.60
2019-01-10T03:05:29.148Z,70.00
2019-01-10T03:08:34.532Z,69.90
2019-01-10T03:11:39.338Z,68.50
2019-01-10T03:14:44.225Z,69.10
2019-01-10T03:17:49.026Z,69.20
2019-01-10T03:20:53.918Z,68.90
2019-01-10T03:23:58.721Z,69.10
2019-01-10T03:27:03.547Z,68.80
2019-01-10T03:30:11.774Z,68.70
2019-01-10T03:33:16.647Z,68.60
2019-01-10T03:36:21.466Z,68.60
2019-01-10T03:39:26.270Z,67.60
2019-01-10T03:42:31.183Z,67.50
2019-01-10T03:45:36.120Z,68.10
2019-01-10T03:48:41.030Z,67.30
2019-01-10T03:51:45.870Z,67.80
2019-01-10T03:54:50.699Z,67.00
2019-01-10T03:57:55.514Z,66.80
2019-01-10T04:01:00.384Z,66.40
2019-01-10T04:04:05.297Z,66.30
2019-01-10T04:07:10.156Z,66.60
2019-01-10T04:10:16.182Z,66.50
2019-01-10T04:13:21.001Z,66.80
2019-01-10T04:16:25.834Z,66.80
2019-01-10T04:19:30.649Z,66.90
2019-01-10T04:22:35.496Z,66.80
2019-01-10T04:25:42.938Z,66.50
2019-01-10T04:28:47.211Z,66.80
2019-01-10T04:31:52.079Z,66.40
2019-01-10T04:34:56.897Z,66.90
2019-01-10T04:38:01.759Z,67.10
2019-01-10T04:41:06.614Z,67.10
2019-01-10T04:44:12.346Z,67.20
2019-01-10T04:47:17.160Z,67.10
2019-01-10T04:50:22.008Z,66.90
2019-01-10T04:53:26.857Z,66.90
2019-01-10T04:56:31.751Z,66.90
2019-01-10T04:59:37.575Z,67.00
2019-01-10T05:02:42.463Z,66.90
2019-01-10T05:05:47.267Z,67.10
2019-01-10T05:08:52.130Z,67.50
2019-01-10T05:11:56.943Z,67.10
2019-01-10T05:15:02.449Z,67.00
2019-01-10T05:18:08.203Z,67.20
2019-01-10T05:21:13.228Z,67.60
2019-01-10T05:24:18.113Z,68.00
2019-01-10T05:27:22.968Z,68.20
2019-01-10T05:30:27.855Z,68.20
2019-01-10T05:33:32.677Z,67.90
2019-01-10T05:36:37.624Z,67.90
2019-01-10T05:39:47.647Z,68.50
2019-01-10T05:42:49.085Z,68.20
2019-01-10T05:45:54.003Z,68.20
2019-01-10T05:48:58.850Z,68.10
2019-01-10T05:52:03.654Z,68.20
2019-01-10T05:55:11.218Z,68.30
2019-01-10T05:58:16.035Z,67.90
2019-01-10T06:01:20.904Z,67.30
2019-01-10T06:04:25.803Z,67.30
2019-01-10T06:07:30.609Z,67.10
2019-01-10T06:10:35.487Z,67.00
2019-01-10T06:13:40.354Z,66.70
2019-01-10T06:16:45.274Z,66.60
2019-01-10T06:19:50.556Z,66.40
2019-01-10T06:22:55.445Z,66.50
2019-01-10T06:26:00.285Z,66.10
2019-01-10T06:29:05.099Z,66.10
2019-01-10T06:32:09.951Z,66.20
2019-01-10T06:35:14.766Z,66.20
2019-01-10T06:38:19.615Z,66.10
2019-01-10T06:41:24.456Z,66.30
2019-01-10T06:44:29.350Z,65.90
2019-01-10T06:47:34.176Z,66.50
2019-01-10T06:50:39.178Z,65.60
2019-01-10T06:53:45.097Z,65.70
2019-01-10T06:56:49.933Z,65.70
2019-01-10T06:59:55.453Z,65.80
2019-01-10T07:03:00.289Z,65.10
2019-01-10T07:06:05.224Z,65.00
2019-01-10T07:09:10.208Z,64.80
2019-01-10T07:12:15.029Z,65.00
2019-01-10T07:15:19.871Z,65.00
2019-01-10T07:18:24.684Z,64.90
2019-01-10T07:21:31.200Z,64.80
2019-01-10T07:24:37.587Z,64.70
2019-01-10T07:27:43.303Z,64.80
2019-01-10T07:30:48.112Z,64.40
2019-01-10T07:33:57.191Z,64.40
2019-01-10T07:37:02.021Z,64.60
2019-01-10T07:40:12.441Z,64.40
2019-01-10T07:43:22.210Z,64.80
2019-01-10T07:46:27.042Z,65.20
2019-01-10T07:49:31.885Z,65.10
2019-01-10T07:52:36.690Z,64.90
2019-01-10T07:55:41.546Z,64.30
2019-01-10T07:58:46.431Z,64.30
2019-01-10T08:01:51.253Z,64.30
2019-01-10T08:04:56.100Z,63.70
2019-01-10T08:08:00.998Z,63.20
2019-01-10T08:11:05.978Z,63.10
2019-01-10T08:14:10.814Z,62.60
2019-01-10T08:17:16.353Z,62.50
2019-01-10T08:20:21.239Z,62.00
2019-01-10T08:23:27.087Z,61.60
2019-01-10T08:26:31.922Z,61.60
2019-01-10T08:29:36.738Z,62.00
2019-01-10T08:32:41.549Z,62.00
2019-01-10T08:35:46.463Z,62.00
2019-01-10T08:38:51.350Z,62.00
2019-01-10T08:41:56.213Z,61.90
2019-01-10T08:45:01.117Z,62.70
2019-01-10T08:48:07.027Z,61.80
2019-01-10T08:51:11.836Z,61.60
2019-01-10T08:54:16.685Z,62.20
2019-01-10T08:57:23.059Z,61.60
2019-01-10T09:00:28.038Z,61.20
2019-01-10T09:03:32.870Z,61.80
2019-01-10T09:06:37.681Z,61.60
2019-01-10T09:09:42.493Z,61.70
2019-01-10T09:12:47.637Z,60.70
2019-01-10T09:15:52.472Z,60.10
2019-01-10T09:18:57.310Z,60.50
2019-01-10T09:22:02.218Z,60.70
2019-01-10T09:25:07.299Z,60.20
2019-01-10T09:28:12.166Z,60.40
2019-01-10T09:31:16.959Z,60.00
2019-01-10T09:34:24.899Z,59.40
2019-01-10T09:37:28.432Z,58.80
2019-01-10T09:40:33.282Z,57.80
2019-01-10T09:43:38.135Z,57.80
2019-01-10T09:46:42.950Z,57.70
2019-01-10T09:49:47.850Z,57.00
2019-01-10T09:52:52.678Z,57.90
2019-01-10T09:55:57.530Z,56.70
2019-01-10T09:59:02.590Z,56.80
2019-01-10T10:02:07.401Z,55.80
2019-01-10T10:05:12.242Z,56.00
2019-01-10T10:08:17.065Z,55.50
2019-01-10T10:11:21.936Z,55.20
2019-01-10T10:14:26.764Z,55.10
2019-01-10T10:17:31.896Z,55.30
2019-01-10T10:20:36.842Z,54.30
2019-01-10T10:23:41.725Z,55.00
2019-01-10T10:26:46.696Z,55.50
2019-01-10T10:29:51.522Z,55.40
2019-01-10T10:32:56.376Z,53.90
2019-01-10T10:36:01.243Z,54.50
2019-01-10T10:39:07.397Z,54.40
2019-01-10T10:42:12.230Z,54.70
2019-01-10T10:45:19.226Z,54.60
2019-01-10T10:48:24.058Z,54.30
2019-01-10T10:51:28.895Z,52.90
2019-01-10T10:54:33.741Z,53.50
2019-01-10T10:57:38.783Z,51.90
2019-01-10T11:00:43.722Z,53.20
2019-01-10T11:03:48.548Z,52.90
2019-01-10T11:06:53.385Z,52.80
2019-01-10T11:09:58.189Z,53.70
2019-01-10T11:13:03.011Z,52.50
2019-01-10T11:16:10.664Z,52.50
2019-01-10T11:19:14.399Z,53.80
2019-01-10T11:22:19.231Z,52.80
2019-01-10T11:25:24.626Z,52.30
2019-01-10T11:28:29.442Z,51.50
2019-01-10T11:31:34.276Z,52.00
2019-01-10T11:34:39.075Z,52.30
2019-01-10T11:37:44.817Z,52.70
2019-01-10T11:40:49.621Z,52.60
2019-01-10T11:43:54.476Z,52.60
2019-01-10T11:46:59.270Z,50.80
2019-01-10T11:50:07.358Z,50.80
2019-01-10T11:53:12.183Z,50.30
2019-01-10T11:56:16.989Z,50.20
2019-01-10T11:59:21.958Z,49.90
2019-01-10T12:02:26.788Z,50.10
2019-01-10T12:05:31.594Z,49.40
2019-01-10T12:08:36.430Z,50.20
2019-01-10T12:11:41.264Z,51.10
2019-01-10T12:14:46.077Z,49.10
2019-01-10T12:17:50.918Z,50.00
2019-01-10T12:20:55.754Z,49.60
2019-01-10T12:24:00.673Z,49.40
2019-01-10T12:27:05.490Z,48.70
2019-01-10T12:30:16.355Z,48.20
2019-01-10T12:33:21.355Z,47.30
2019-01-10T12:36:26.169Z,48.00
2019-01-10T12:39:30.986Z,48.90
2019-01-10T12:42:36.773Z,49.30
2019-01-10T12:45:42.013Z,47.50
2019-01-10T12:48:47.414Z,47.50
2019-01-10T12:51:52.250Z,47.60
2019-01-10T12:54:57.091Z,48.20
2019-01-10T12:58:01.989Z,46.70
2019-01-10T13:01:06.919Z,47.30
2019-01-10T13:04:11.794Z,47.70
2019-01-10T13:07:16.630Z,46.70
2019-01-10T13:10:21.481Z,46.20
2019-01-10T13:13:26.285Z,46.80
2019-01-10T13:16:31.106Z,46.90
2019-01-10T13:19:36.190Z,46.20
2019-01-10T13:22:41.047Z,46.10
2019-01-10T13:25:45.955Z,45.30
2019-01-10T13:28:50.784Z,45.20
2019-01-10T13:31:55.618Z,45.20
2019-01-10T13:35:00.453Z,45.90
2019-01-10T13:38:05.344Z,45.90
2019-01-10T13:41:10.669Z,46.00
2019-01-10T13:44:15.630Z,46.40
2019-01-10T13:47:20.429Z,46.40
2019-01-10T13:50:27.203Z,47.20
2019-01-10T13:53:32.081Z,46.90
2019-01-10T13:56:36.976Z,47.50
2019-01-10T13:59:41.791Z,47.70
2019-01-10T14:02:46.598Z,46.90
2019-01-10T14:05:51.442Z,46.60
2019-01-10T14:08:56.432Z,45.80
2019-01-10T14:12:01.260Z,45.60
2019-01-10T14:15:09.626Z,44.50
2019-01-10T14:18:14.425Z,46.10
2019-01-10T14:21:19.268Z,45.10
2019-01-10T14:24:24.110Z,44.80
2019-01-10T14:27:28.927Z,45.50
2019-01-10T14:30:36.382Z,45.20
2019-01-10T14:33:41.245Z,46.10
2019-01-10T14:36:46.122Z,46.20
2019-01-10T14:39:50.965Z,46.20
2019-01-10T14:42:55.853Z,46.60
2019-01-10T14:46:00.708Z,44.60
2019-01-10T14:49:05.590Z,44.70
2019-01-10T14:52:10.422Z,45.00
2019-01-10T14:55:15.406Z,44.50
2019-01-10T14:58:20.226Z,45.80
2019-01-10T15:01:25.056Z,45.00
2019-01-10T15:04:29.893Z,45.00
2019-01-10T15:07:34.694Z,45.90
2019-01-10T15:10:39.658Z,45.10
2019-01-10T15:13:44.559Z,44.80
2019-01-10T15:16:49.446Z,45.70
2019-01-10T15:19:54.513Z,44.90
2019-01-10T15:22:59.342Z,44.10
2019-01-10T15:26:04.250Z,44.20
2019-01-10T15:29:09.083Z,44.40
2019-01-10T15:32:13.905Z,43.70
2019-01-10T15:35:18.803Z,43.80
2019-01-10T15:38:23.740Z,43.90
2019-01-10T15:41:28.629Z,45.10
2019-01-10T15:44:33.503Z,45.00
2019-01-10T15:47:38.334Z,41.50
2019-01-10T15:50:43.248Z,42.40
2019-01-10T15:53:48.110Z,42.60
2019-01-10T15:56:53.022Z,43.30
2019-01-10T15:59:57.875Z,43.00
2019-01-10T16:03:02.708Z,43.30
2019-01-10T16:06:07.548Z,43.20
2019-01-10T16:09:12.370Z,42.90
2019-01-10T16:12:17.264Z,43.50
2019-01-10T16:15:23.730Z,43.10
2019-01-10T16:18:28.626Z,43.80
2019-01-10T16:21:33.442Z,43.90
2019-01-10T16:24:38.245Z,43.30
2019-01-10T16:27:43.173Z,43.00
2019-01-10T16:30:47.968Z,43.00
2019-01-10T16:33:52.791Z,44.00
2019-01-10T16:36:57.592Z,44.30
2019-01-10T16:40:02.491Z,44.10
2019-01-10T16:43:11.926Z,44.00
2019-01-10T16:46:13.857Z,44.10
2019-01-10T16:49:18.666Z,44.10
2019-01-10T16:52:23.485Z,43.80
2019-01-10T16:55:28.306Z,44.90
2019-01-10T16:58:33.147Z,45.20
2019-01-10T17:01:37.954Z,46.40
2019-01-10T17:04:42.802Z,46.90
2019-01-10T17:07:47.695Z,47.00
2019-01-10T17:10:52.594Z,47.40
2019-01-10T17:13:57.508Z,47.70
2019-01-10T17:17:02.325Z,48.10
2019-01-10T17:20:10.229Z,48.00
2019-01-10T17:23:15.124Z,48.20
2019-01-10T17:26:20.940Z,48.40
2019-01-10T17:29:25.805Z,48.80
2019-01-10T17:32:30.792Z,48.20
2019-01-10T17:35:35.690Z,48.40
2019-01-10T17:38:40.637Z,48.10
2019-01-10T17:41:45.542Z,48.20
2019-01-10T17:44:50.370Z,48.80
2019-01-10T17:47:55.181Z,49.60
2019-01-10T17:51:00.986Z,49.80
2019-01-10T17:54:05.842Z,50.00
2019-01-10T17:57:12.597Z,50.20
2019-01-10T18:00:22.791Z,50.50
2019-01-10T18:03:27.648Z,51.00
2019-01-10T18:06:32.570Z,51.00
2019-01-10T18:09:37.391Z,51.60
2019-01-10T18:12:43.351Z,51.70
2019-01-10T18:15:48.230Z,51.70
2019-01-10T18:18:53.063Z,52.30
2019-01-10T18:21:57.910Z,53.00
2019-01-10T18:25:02.733Z,53.00
2019-01-10T18:28:07.584Z,53.00
2019-01-10T18:31:12.482Z,53.30
2019-01-10T18:34:17.358Z,53.70
2019-01-10T18:37:22.234Z,53.30
2019-01-10T18:40:27.072Z,54.00
2019-01-10T18:43:32.722Z,54.00
2019-01-10T18:46:37.570Z,54.30
2019-01-10T18:49:42.438Z,53.80
2019-01-10T18:52:47.274Z,54.00
2019-01-10T18:55:52.112Z,53.80
2019-01-10T18:58:57.195Z,54.40
2019-01-10T19:02:02.040Z,54.10
2019-01-10T19:05:07.298Z,53.90
2019-01-10T19:08:12.129Z,51.60
2019-01-10T19:11:16.945Z,51.50
2019-01-10T19:14:21.774Z,51.90
2019-01-10T19:17:26.598Z,50.60
2019-01-10T19:20:31.453Z,50.90
2019-01-10T19:23:36.349Z,51.20
2019-01-10T19:26:41.211Z,50.20
2019-01-10T19:29:46.042Z,50.50
2019-01-10T19:32:50.950Z,50.70
2019-01-10T19:35:55.807Z,50.20
2019-01-10T19:39:00.614Z,50.10
2019-01-10T19:42:05.458Z,50.70
2019-01-10T19:45:12.693Z,50.60
2019-01-10T19:48:17.645Z,50.40
2019-01-10T19:51:22.606Z,50.90
2019-01-10T19:54:27.486Z,50.90
2019-01-10T19:57:33.321Z,50.50
2019-01-10T20:00:38.860Z,50.00
2019-01-10T20:03:45.010Z,50.50
2019-01-10T20:06:49.817Z,50.30
2019-01-10T20:09:54.657Z,50.80
2019-01-10T20:12:59.487Z,50.70
2019-01-10T20:16:04.786Z,51.40
2019-01-10T20:19:11.485Z,51.40
2019-01-10T20:22:16.362Z,50.20
2019-01-10T20:25:22.104Z,50.20
2019-01-10T20:28:26.969Z,50.40
2019-01-10T20:31:31.857Z,51.00
2019-01-10T20:34:36.725Z,50.90
2019-01-10T20:37:41.586Z,51.30
2019-01-10T20:40:46.767Z,51.60
2019-01-10T20:43:52.156Z,52.00
2019-01-10T20:46:56.955Z,51.70
2019-01-10T20:50:01.791Z,52.20
2019-01-10T20:53:06.698Z,52.40
2019-01-10T20:56:11.542Z,52.30
2019-01-10T20:59:16.603Z,52.70
2019-01-10T21:02:22.181Z,53.00
2019-01-10T21:05:26.995Z,53.10
2019-01-10T21:08:31.819Z,53.60
2019-01-10T21:11:36.728Z,53.40
2019-01-10T21:14:41.550Z,54.30
2019-01-10T21:17:49.151Z,53.70
2019-01-10T21:20:54.163Z,53.90
2019-01-10T21:23:58.971Z,53.90
2019-01-10T21:27:03.814Z,53.30
2019-01-10T21:30:11.898Z,53.60
2019-01-10T21:33:16.773Z,54.00
2019-01-10T21:36:21.630Z,54.00
2019-01-10T21:39:26.470Z,54.20
2019-01-10T21:42:31.334Z,54.00
2019-01-10T21:45:36.259Z,54.30
2019-01-10T21:48:41.150Z,54.40
2019-01-10T21:51:46.342Z,54.70
2019-01-10T21:54:51.165Z,54.70
2019-01-10T21:57:55.969Z,54.20
2019-01-10T22:01:00.871Z,53.90
2019-01-10T22:04:05.785Z,54.10
2019-01-10T22:07:10.602Z,54.30
2019-01-10T22:10:15.423Z,55.20
2019-01-10T22:13:21.228Z,55.00
2019-01-10T22:16:26.138Z,54.30
2019-01-10T22:19:30.955Z,54.50
2019-01-10T22:22:35.766Z,54.20
2019-01-10T22:25:40.598Z,54.40
2019-01-10T22:28:45.426Z,54.50
2019-01-10T22:31:50.251Z,55.90
2019-01-10T22:34:55.061Z,55.30
2019-01-10T22:37:59.896Z,55.00
2019-01-10T22:41:04.724Z,55.30
2019-01-10T22:44:09.636Z,55.20
2019-01-10T22:47:14.433Z,55.00
2019-01-10T22:50:20.627Z,55.10
2019-01-10T22:53:25.510Z,54.90
2019-01-10T22:56:30.326Z,55.00
2019-01-10T22:59:35.133Z,55.00
2019-01-10T23:02:39.966Z,55.20
2019-01-10T23:05:44.870Z,55.30
2019-01-10T23:08:49.753Z,55.30
2019-01-10T23:11:54.598Z,55.90
2019-01-10T23:14:59.447Z,55.70
2019-01-10T23:18:06.021Z,55.40
2019-01-10T23:21:10.868Z,55.70
2019-01-10T23:24:17.264Z,55.70
2019-01-10T23:27:22.084Z,55.80
2019-01-10T23:30:45.779Z,56.00
2019-01-10T23:33:50.582Z,55.60
2019-01-10T23:36:55.498Z,55.90
2019-01-10T23:40:00.308Z,55.90
2019-01-10T23:43:05.336Z,56.00
2019-01-10T23:46:10.253Z,56.00
2019-01-10T23:49:15.154Z,56.50
2019-01-10T23:52:19.960Z,56.30
2019-01-10T23:55:24.827Z,57.10
2019-01-10T23:58:29.678Z,56.10
